Lewisville, Texas
Current Conditions -  °F | °C
As of 2:53 AM on Sunday 21 Dec 2014 (Local Time) from KDFW Reporting Station
Overcast Overcast  
Wind Chill: 44°   Ceiling: 2900
Heat Index: 47°   Visibility: 7mi
Dew Point: 44°   Wind: 6mph
Humidity: 90%   Direction: 170°S
Pressure: 30.14"   Gusts: NA
Location:  33.05°N, 96.99°W
Report Text: KDFW 210853Z 17005KT 7SM FEW009 OVC029 08/07 A3014 RMK AO2 SLP204 T00830067 56013 $
Loading
Personal Weather Stations






























Interactive Weather Map New forecast layout! Learn more

10-Day Weather Forecast

Advertisements
Track Severe Weather on mobile